Sparta, Illinois
Current Conditions -  °F | °C
As of 11:55 PM on Tuesday 21 Oct 2014 (Local Time) from KSAR Reporting Station
Clear Clear  
Wind Chill: 44°   Ceiling: Unl
Heat Index: 47°   Visibility: 10mi
Dew Point: 41°   Wind: 7mph
Humidity: 78%   Direction: 60°ENE
Pressure: 30.21"   Gusts: NA
Location:  38.12°N, 89.7°W
Report Text: KSAR 220455Z AUTO 06006KT 10SM CLR 09/05 A3021 RMK AO2 T00860050
Loading
Personal Weather Stations






























Interactive Weather Map
Tropical Storm Tracking
New forecast layout! Learn more

10-Day Weather Forecast

Advertisements
Track Severe Weather on mobile